Latest Weather Observations for Nuriootpa

IDS60901

Issued at 3:31 pm CST Friday 29 April 2016 (issued every 10 minutes, with the page automatically refreshed every 10 minutes)

About weather observations | Map of Adelaide area stations | Latest observations for Adelaide area | Other Formats
Station Details ID: 023373 Name: NURIOOTPA PIRSA Lat: -34.48 Lon: 139.01 Height: 275.0 m
Data from the previous 72 hours. | See also: Recent months at Nuriootpa
Date/Time
CST
Tmp

°C
App
Tmp
°C
Dew
Point
°C
Rel
Hum
%
Delta-T

°C
Wind Press
QNH
hPa
Press
MSL
hPa
Rain
since
9 am
mm
Dir
 
Spd
km/h
Gust
km/h
Spd
kts
Gust
kts
29/03:30pm 22.2 19.1 11.6 51 6.0 WNW 19 28 10 15 1012.0 1011.6 0.2
29/03:00pm 22.5 22.9 22.5 100 0.0 WNW 24 35 13 19 1011.6 1011.2 0.2
29/02:30pm 21.9 23.0 21.9 100 0.0 WNW 19 28 10 15 1011.5 1011.1 0.2
29/02:00pm 21.5 22.2 21.5 100 0.0 WNW 20 33 11 18 1011.6 1011.2 0.0
29/01:30pm 20.6 19.3 20.6 100 0.0 WNW 28 37 15 20 1011.8 1011.4 0.0
29/01:00pm 21.4 21.3 21.4 100 0.0 WNW 24 37 13 20 1011.8 1011.4 0.0
29/12:30pm 20.6 19.7 20.6 100 0.0 NW 26 39 14 21 1012.1 1011.7 0.0
29/12:00pm 20.6 20.7 20.4 99 0.1 NW 20 33 11 18 1012.3 1011.9 0.0
29/11:30am 19.8 21.2 19.5 98 0.2 N 11 17 6 9 1012.8 1012.4 0.0
29/11:00am 17.7 18.3 17.7 100 0.0 N 11 17 6 9 1013.2 1012.8 0.0
29/10:30am 17.0 17.7 17.0 100 0.0 NNE 9 15 5 8 1013.5 1013.1 0.0
29/10:00am 16.6 16.4 16.6 100 0.0 N 13 19 7 10 1013.7 1013.3 0.0
29/09:30am 16.7 16.1 16.7 100 0.0 N 15 28 8 15 1013.6 1013.2 0.0
29/09:00am 16.1 16.4 15.9 99 0.1 N 9 17 5 9 1013.7 1013.3 3.6
29/08:30am 15.2 15.6 15.2 100 0.0 NE 7 9 4 5 1013.6 1013.2 3.6
29/08:00am 14.7 14.5 14.7 100 0.0 ENE 9 11 5 6 1013.4 1013.0 3.6
29/07:30am 14.5 14.2 14.5 100 0.0 ENE 9 11 5 6 1013.7 1013.3 3.6
29/07:00am 14.5 15.9 14.5 100 0.0 CALM 0 0 0 0 1014.0 1013.6 3.4
29/06:30am 14.7 16.2 14.7 100 0.0 CALM 0 0 0 0 1013.8 1013.4 3.2
29/06:00am 14.7 15.5 14.7 100 0.0 ENE 4 9 2 5 1013.6 1013.2 2.8
29/05:30am 14.8 15.0 14.8 100 0.0 SW 7 9 4 5 1013.8 1013.4 2.8
29/05:00am 15.0 14.2 15.0 100 0.0 SW 13 17 7 9 1013.9 1013.5 2.6
29/04:30am 15.2 14.4 15.2 100 0.0 SW 13 17 7 9 1014.0 1013.6 2.4
29/04:00am 15.2 14.4 15.2 100 0.0 SW 13 15 7 8 1014.0 1013.6 2.0
29/03:30am 16.4 16.1 16.4 100 0.0 W 13 19 7 10 1014.3 1013.8 2.0
29/03:00am 16.9 16.0 16.9 100 0.0 WNW 17 24 9 13 1014.4 1014.0 1.6
29/02:30am 15.6 16.3 15.6 100 0.0 NE 6 7 3 4 1014.8 1014.4 1.2
29/02:00am 16.8 17.8 16.8 100 0.0 NNE 7 9 4 5 1014.6 1014.2 1.0
29/01:30am 19.4 19.2 19.4 100 0.0 NNW 19 30 10 16 1014.5 1014.1 0.4
29/01:00am 21.0 21.4 21.0 100 0.0 NW 20 32 11 17 1014.6 1014.2 0.2
29/12:30am 19.7 21.2 19.7 100 0.0 NNW 11 17 6 9 1014.8 1014.4 0.2
29/12:00am 21.5 23.1 21.5 100 0.0 N 15 24 8 13 1013.2 1012.8 0.2
 
Date/Time
CST
Tmp

°C
App
Tmp
°C
Dew
Point
°C
Rel
Hum
%
Delta-T

°C
Wind Press
QNH
hPa
Press
MSL
hPa
Rain
since
9 am
mm
Dir
 
Spd
km/h
Gust
km/h
Spd
kts
Gust
kts
28/11:30pm 22.6 24.4 22.6 100 0.0 N 17 26 9 14 1013.2 1012.8 0.2
28/11:00pm 20.1 22.1 19.9 99 0.1 NE 9 17 5 9 1013.2 1012.8 0.2
28/10:30pm 19.8 21.3 19.8 100 0.0 ENE 11 15 6 8 1013.4 1013.0 0.2
28/10:00pm 20.1 21.4 20.1 100 0.0 NE 13 19 7 10 1013.9 1013.5 0.2
28/09:30pm 19.8 22.3 19.8 100 0.0 NE 6 7 3 4 1014.4 1014.0 0.2
28/09:00pm 20.2 22.9 20.2 100 0.0 NNE 6 9 3 5 1014.6 1014.2 0.2
28/08:30pm 21.3 23.2 21.3 100 0.0 NNE 13 20 7 11 1014.5 1014.1 0.2
28/08:00pm 21.1 23.2 20.9 99 0.1 NNE 11 17 6 9 1014.6 1014.2 0.2
28/07:30pm 20.7 22.3 20.7 100 0.0 NE 13 20 7 11 1014.5 1014.1 0.2
28/07:00pm 20.2 22.3 20.2 100 0.0 ENE 9 13 5 7 1014.7 1014.3 0.2
28/06:30pm 20.4 22.2 20.4 100 0.0 NE 11 17 6 9 1014.7 1014.3 0.2
28/06:00pm 20.0 22.0 20.0 100 0.0 NE 9 13 5 7 1014.9 1014.5 0.2
28/05:30pm 20.2 21.5 20.2 100 0.0 NE 13 20 7 11 1014.8 1014.4 0.2
28/05:00pm 20.1 21.4 20.1 100 0.0 ENE 13 19 7 10 1014.7 1014.3 0.2
28/04:30pm 20.0 20.5 20.0 100 0.0 NE 17 28 9 15 1014.8 1014.4 0.2
28/04:00pm 20.8 21.7 20.8 100 0.0 NE 17 28 9 15 1014.7 1014.3 0.2
28/03:30pm 20.9 21.8 20.9 100 0.0 ENE 17 22 9 12 1014.4 1014.0 0.2
28/03:00pm 20.9 21.3 20.9 100 0.0 ENE 20 28 11 15 1014.5 1014.1 0.2
28/02:30pm 21.5 22.1 21.0 97 0.3 ENE 19 32 10 17 1014.7 1014.3 0.2
28/02:00pm 21.3 21.5 20.5 95 0.5 ENE 20 30 11 16 1015.0 1014.6 0.2
28/01:30pm 21.8 21.0 18.0 79 2.4 ENE 19 26 10 14 1015.2 1014.8 0.2
28/01:00pm 21.5 20.5 14.6 65 4.1 NE 13 20 7 11 1015.9 1015.5 0.2
28/12:30pm 20.7 19.3 14.4 67 3.7 ENE 15 22 8 12 1016.8 1016.4 0.0
28/12:00pm 20.0 18.6 14.4 70 3.3 NE 15 22 8 12 1017.3 1016.9 0.0
28/11:30am 18.3 17.6 14.4 78 2.3 ENE 11 15 6 8 1017.8 1017.5 0.0
28/11:00am 17.2 16.5 14.3 83 1.7 NE 11 13 6 7 1018.3 1017.9 0.0
28/10:30am 17.0 16.4 14.6 86 1.4 NE 11 15 6 8 1018.4 1018.0 0.0
28/10:00am 16.6 16.3 14.3 86 1.3 NE 9 13 5 7 1018.8 1018.4 0.0
28/09:30am 16.5 16.4 15.0 91 0.9 NE 9 13 5 7 1019.0 1018.6 0.0
28/09:00am 16.1 16.5 15.2 94 0.5 E 7 11 4 6 1018.9 1018.5 0.4
28/08:30am 15.7 16.0 15.0 96 0.4 ENE 7 11 4 6 1019.0 1018.6 0.4
28/08:00am 15.6 16.0 14.7 94 0.5 NE 6 7 3 4 1018.9 1018.5 0.2
28/07:30am 15.4 17.0 14.9 97 0.3 CALM 0 0 0 0 1018.6 1018.2 0.2
28/07:00am 15.4 16.9 14.7 96 0.4 CALM 0 0 0 0 1017.8 1017.5 0.2
28/06:30am 15.5 15.4 15.0 97 0.3 NNE 9 11 5 6 1017.4 1017.1 0.2
28/06:00am 15.6 16.1 15.1 97 0.3 NNW 6 9 3 5 1017.2 1016.8 0.2
28/05:30am 15.5 16.4 15.0 97 0.3 WSW 4 9 2 5 1016.9 1016.5 0.0
28/05:00am 15.8 17.1 15.1 96 0.4 ESE 2 13 1 7 1016.4 1016.0 0.0
28/04:30am 16.0 16.6 15.3 96 0.4 SSW 6 11 3 6 1016.8 1016.4 0.0
28/04:00am 16.1 15.3 15.2 94 0.5 SW 13 17 7 9 1016.5 1016.1 0.0
28/03:30am 16.4 14.9 15.2 93 0.7 WSW 17 22 9 12 1016.7 1016.3 0.0
28/03:00am 16.4 15.8 14.7 90 1.0 WSW 11 15 6 8 1016.4 1016.0 0.0
28/02:30am 16.6 16.2 14.0 84 1.5 WSW 9 13 5 7 1016.2 1015.8 0.0
28/02:00am 16.7 16.3 13.0 79 2.1 WSW 7 11 4 6 1016.3 1015.9 0.0
28/01:30am 17.9 16.1 10.9 63 3.8 WSW 11 17 6 9 1016.1 1015.7 0.0
28/01:00am 19.2 17.6 8.8 51 5.5 WNW 7 9 4 5 1016.0 1015.6 0.0
28/12:30am 19.9 17.9 8.6 48 6.0 W 9 11 5 6 1015.8 1015.4 0.0
28/12:00am 20.9 18.5 8.5 45 6.6 WSW 11 15 6 8 1015.5 1015.1 0.0
 
Date/Time
CST
Tmp

°C
App
Tmp
°C
Dew
Point
°C
Rel
Hum
%
Delta-T

°C
Wind Press
QNH
hPa
Press
MSL
hPa
Rain
since
9 am
mm
Dir
 
Spd
km/h
Gust
km/h
Spd
kts
Gust
kts
27/11:30pm 21.5 18.9 9.3 45 6.6 WNW 13 19 7 10 1015.4 1015.0 0.0
27/11:00pm 22.5 18.7 7.5 38 7.9 WNW 17 24 9 13 1015.4 1015.0 0.0
27/10:30pm 23.3 18.7 5.4 31 9.1 NW 19 30 10 16 1015.3 1014.9 0.0
27/10:00pm 23.7 19.1 1.7 23 10.5 NNW 15 26 8 14 1015.4 1015.0 0.0
27/09:30pm 23.5 19.4 2.3 25 10.2 NNW 13 22 7 12 1015.3 1014.9 0.0
27/09:00pm 23.8 19.6 1.5 23 10.6 NNW 13 19 7 10 1015.2 1014.8 0.0
27/08:30pm 22.3 19.2 3.4 29 9.2 N 9 11 5 6 1015.0 1014.6 0.0
27/08:00pm 22.5 19.4 3.5 29 9.3 NNE 9 11 5 6 1014.9 1014.5 0.0
27/07:30pm 22.2 18.7 3.6 29 9.1 NE 11 13 6 7 1014.8 1014.4 0.0
27/07:00pm 22.9 20.4 4.5 30 9.2 NE 7 9 4 5 1014.5 1014.1 0.0
27/06:30pm 24.6 21.8 3.4 25 10.5 NNW 7 15 4 8 1014.6 1014.2 0.0
27/06:00pm 25.2 21.5 2.2 22 11.2 N 11 20 6 11 1014.4 1014.0 0.0
27/05:30pm 25.8 21.1 0.8 19 11.9 NNW 15 26 8 14 1014.1 1013.7 0.0
27/05:00pm 26.4 20.3 0.2 18 12.4 NW 22 35 12 19 1014.1 1013.7 0.0
27/04:30pm 26.5 20.7 0.0 17 12.5 NW 20 35 11 19 1013.9 1013.5 0.0
27/04:00pm 26.8 20.0 0.7 18 12.5 NW 26 43 14 23 1013.8 1013.4 0.0
27/03:30pm 27.0 20.6 1.1 18 12.5 NNW 24 37 13 20 1013.7 1013.3 0.0
27/03:00pm 26.6 21.0 1.0 19 12.3 NNW 20 35 11 19 1013.8 1013.4 0.0
27/02:30pm 26.5 21.0 1.6 20 12.1 NW 20 35 11 19 1013.8 1013.4 0.0
27/02:00pm 26.4 19.3 1.4 19 12.1 NNW 28 48 15 26 1013.7 1013.3 0.0
27/01:30pm 26.5 19.3 0.8 18 12.3 NW 28 48 15 26 1014.0 1013.6 0.0
27/01:05pm 26.3 19.1 0.4 18 12.3 NNW 28 46 15 25 1014.1 1013.7 0.0
27/01:00pm 26.4 20.5 1.4 19 12.1 NNW 22 37 12 20 1014.1 1013.7 0.0
27/12:30pm 26.1 20.2 1.8 20 11.8 NNW 22 37 12 20 1014.7 1014.3 0.0
27/12:00pm 25.2 20.0 2.2 22 11.2 NNW 19 35 10 19 1015.0 1014.6 0.0
27/11:30am 24.9 19.7 2.3 23 11.0 NNW 19 32 10 17 1015.2 1014.8 0.0
27/11:00am 25.2 19.7 1.8 21 11.3 N 20 33 11 18 1015.3 1014.9 0.0
27/10:30am 24.7 19.2 1.9 22 11.0 N 20 37 11 20 1015.5 1015.1 0.0
27/10:00am 23.0 19.0 3.1 27 9.7 N 13 20 7 11 1015.8 1015.4 0.0
27/09:30am 22.7 17.3 2.5 26 9.7 N 20 30 11 16 1016.0 1015.6 0.0
27/09:00am 22.2 17.0 2.6 27 9.4 N 19 30 10 16 1016.3 1015.9 0.0
27/08:30am 21.5 16.8 3.0 29 8.9 N 17 24 9 13 1016.3 1015.9 0.0
27/08:00am 20.9 16.2 2.9 30 8.6 N 17 24 9 13 1016.3 1015.9 0.0
27/07:30am 20.2 15.5 3.0 32 8.2 N 17 24 9 13 1016.3 1015.9 0.0
27/07:00am 19.4 15.0 2.9 33 7.8 N 15 24 8 13 1016.2 1015.8 0.0
27/06:30am 19.0 14.6 2.8 34 7.6 N 15 22 8 12 1016.2 1015.8 0.0
27/06:00am 19.3 14.9 2.7 33 7.8 N 15 22 8 12 1016.3 1015.9 0.0
27/05:30am 19.7 15.3 2.7 32 8.0 N 15 24 8 13 1016.3 1015.9 0.0
27/05:00am 20.1 15.3 2.5 31 8.3 N 17 28 9 15 1016.3 1015.9 0.0
27/04:30am 20.0 15.2 2.6 31 8.2 N 17 28 9 15 1016.4 1016.0 0.0
27/04:00am 18.3 14.7 3.2 36 7.1 NNE 11 17 6 9 1016.4 1016.0 0.0
27/03:30am 17.5 13.6 3.2 38 6.7 NNE 13 17 7 9 1016.6 1016.2 0.0
27/03:00am 18.0 14.4 3.1 37 7.0 NNE 11 17 6 9 1017.1 1016.7 0.0
27/02:30am 18.2 14.2 3.1 36 7.1 NNE 13 17 7 9 1017.4 1017.1 0.0
27/02:00am 18.2 14.3 3.4 37 7.0 NNE 13 17 7 9 1017.4 1017.1 0.0
27/01:30am 18.0 14.0 3.1 37 7.0 NNE 13 17 7 9 1017.3 1016.9 0.0
27/01:00am 17.4 14.7 3.9 40 6.4 NNE 7 9 4 5 1017.6 1017.3 0.0
27/12:30am 17.6 14.4 3.3 38 6.7 N 9 11 5 6 1017.6 1017.3 0.0
27/12:00am 17.6 14.3 2.7 37 6.9 N 9 13 5 7 1017.6 1017.3 0.0
 
Date/Time
CST
Tmp

°C
App
Tmp
°C
Dew
Point
°C
Rel
Hum
%
Delta-T

°C
Wind Press
QNH
hPa
Press
MSL
hPa
Rain
since
9 am
mm
Dir
 
Spd
km/h
Gust
km/h
Spd
kts
Gust
kts
26/11:30pm 17.8 14.5 2.4 35 7.1 N 9 13 5 7 1017.9 1017.6 0.0
26/11:00pm 17.6 14.8 3.3 38 6.7 N 7 9 4 5 1018.2 1017.8 0.0
26/10:30pm 18.6 15.4 2.8 35 7.4 N 9 13 5 7 1018.4 1018.0 0.0
26/10:00pm 18.9 15.5 2.0 32 7.8 N 9 15 5 8 1018.8 1018.4 0.0
26/09:30pm 19.3 15.9 1.7 31 8.1 N 9 15 5 8 1019.0 1018.6 0.0
26/09:00pm 20.0 16.6 1.6 29 8.5 N 9 13 5 7 1019.3 1018.9 0.0
26/08:30pm 21.4 17.2 1.4 26 9.3 N 13 17 7 9 1019.3 1018.9 0.0
26/08:00pm 21.7 17.4 1.3 26 9.5 NNE 13 22 7 12 1019.4 1019.0 0.0
26/07:30pm 22.2 17.5 1.2 25 9.8 NNE 15 24 8 13 1019.4 1019.0 0.0
26/07:00pm 22.1 17.5 1.3 25 9.7 NNE 15 20 8 11 1019.3 1018.9 0.0
26/06:30pm 22.1 17.5 1.3 25 9.7 NE 15 22 8 12 1019.1 1018.7 0.0
26/06:00pm 22.8 18.4 0.5 23 10.3 NE 13 17 7 9 1019.0 1018.6 0.0
26/05:30pm 24.0 19.2 0.4 21 11.0 NNE 15 20 8 11 1018.7 1018.3 0.0
26/05:00pm 25.1 20.3 0.4 19 11.6 N 15 24 8 13 1018.9 1018.5 0.0
26/04:30pm 26.3 21.0 -0.6 17 12.5 NNE 17 24 9 13 1018.9 1018.5 0.0
26/04:00pm 27.1 21.3 -1.2 15 13.1 N 19 30 10 16 1019.0 1018.6 0.0

Latest Capital City Observations: Canberra | Sydney | Melbourne | Brisbane | Adelaide | Perth | Hobart | Darwin

Other Formats:

Comma delimited format used in spreadsheet applications
http://www.bom.gov.au/fwo/IDS60901/IDS60901.94681.axf

JavaScript Object Notation format (JSON) in row-major order
http://www.bom.gov.au/fwo/IDS60901/IDS60901.94681.json